createdAt,value
2024-03-26T00:00:42.256Z,31.73
2024-03-26T00:01:42.274Z,31.79
2024-03-26T00:02:42.219Z,31.94
2024-03-26T00:03:42.178Z,31.91
2024-03-26T00:04:42.191Z,31.88
2024-03-26T00:05:42.213Z,31.73
2024-03-26T00:06:42.273Z,31.87
2024-03-26T00:07:42.203Z,31.85
2024-03-26T00:08:42.233Z,32.00
2024-03-26T00:09:42.219Z,32.05
2024-03-26T00:10:42.253Z,32.11
2024-03-26T00:11:42.284Z,31.74
2024-03-26T00:12:42.232Z,31.66
2024-03-26T00:13:42.277Z,31.71
2024-03-26T00:14:42.296Z,31.81
2024-03-26T00:15:42.196Z,31.99
2024-03-26T00:16:42.299Z,31.98
2024-03-26T00:17:42.248Z,32.21
2024-03-26T00:18:42.226Z,32.08
2024-03-26T00:19:42.319Z,32.05
2024-03-26T00:20:42.276Z,32.27
2024-03-26T00:21:42.460Z,32.25
2024-03-26T00:22:42.290Z,32.23
2024-03-26T00:23:42.328Z,32.17
2024-03-26T00:24:42.261Z,33.14
2024-03-26T00:25:42.296Z,32.86
2024-03-26T00:26:42.363Z,32.67
2024-03-26T00:27:42.577Z,32.47
2024-03-26T00:28:44.012Z,32.54
2024-03-26T00:29:42.424Z,32.68
2024-03-26T00:30:42.392Z,32.73
2024-03-26T00:31:42.310Z,32.92
2024-03-26T00:32:42.302Z,32.83
2024-03-26T00:33:42.312Z,33.52
2024-03-26T00:34:42.405Z,33.24
2024-03-26T00:35:42.410Z,33.37
2024-03-26T00:36:42.410Z,33.79
2024-03-26T00:37:42.315Z,36.23
2024-03-26T00:38:42.307Z,37.47
2024-03-26T00:39:42.325Z,36.43
2024-03-26T00:40:42.362Z,34.43
2024-03-26T00:41:42.372Z,33.96
2024-03-26T00:42:42.371Z,33.96
2024-03-26T00:43:42.287Z,34.71
2024-03-26T00:44:42.344Z,35.04
2024-03-26T00:45:42.338Z,35.22
2024-03-26T00:46:42.374Z,36.74
2024-03-26T00:47:42.537Z,37.21
2024-03-26T00:48:42.487Z,38.21
2024-03-26T00:49:42.433Z,38.71
2024-03-26T00:50:42.524Z,38.56
2024-03-26T00:51:42.511Z,37.62
2024-03-26T00:52:42.614Z,38.95
2024-03-26T00:53:44.501Z,39.32
2024-03-26T00:54:42.676Z,39.50
2024-03-26T00:55:42.682Z,39.91
2024-03-26T00:56:42.809Z,41.19
2024-03-26T00:57:42.873Z,42.46
2024-03-26T00:58:42.860Z,41.13
2024-03-26T00:59:42.914Z,41.34
2024-03-26T01:00:42.956Z,40.45
2024-03-26T09:39:52.056Z,26.03
2024-03-26T09:40:52.082Z,25.92
2024-03-26T09:41:52.039Z,25.76
2024-03-26T09:42:52.073Z,25.98
2024-03-26T09:43:52.002Z,26.02
2024-03-26T09:44:58.537Z,25.86
2024-03-26T09:45:53.015Z,25.75
2024-03-26T09:46:52.045Z,25.73
2024-03-26T09:47:52.025Z,25.90
2024-03-26T09:48:52.009Z,25.82
2024-03-26T09:49:52.012Z,25.99
2024-03-26T09:50:52.034Z,25.97
2024-03-26T09:51:52.129Z,25.88
2024-03-26T09:52:52.048Z,26.01
2024-03-26T09:53:52.039Z,26.10
2024-03-26T09:54:52.037Z,25.87
2024-03-26T09:55:52.048Z,26.20
2024-03-26T09:56:52.215Z,26.08
2024-03-26T09:57:52.288Z,25.94
2024-03-26T09:58:52.203Z,25.81
2024-03-26T09:59:52.506Z,25.63
2024-03-26T10:00:52.216Z,25.68
2024-03-26T10:01:52.175Z,26.11
2024-03-26T10:02:52.206Z,26.30
2024-03-26T10:03:52.292Z,26.28
2024-03-26T10:04:52.305Z,26.48
2024-03-26T10:05:52.386Z,26.51
2024-03-26T10:06:52.416Z,26.44
2024-03-26T10:07:52.436Z,26.58
2024-03-26T10:08:52.469Z,26.57
2024-03-26T10:09:52.553Z,26.53
2024-03-26T10:10:52.519Z,26.76
2024-03-26T10:11:52.578Z,26.67
2024-03-26T10:12:52.572Z,26.62
2024-03-26T10:13:52.642Z,26.62
2024-03-26T10:14:52.691Z,26.51
2024-03-26T10:15:52.688Z,26.37
2024-03-26T10:16:52.767Z,26.44
2024-03-26T10:17:52.748Z,26.61
2024-03-26T10:18:52.848Z,26.64
2024-03-26T10:19:52.790Z,26.70
2024-03-26T10:20:52.901Z,26.87
2024-03-26T10:21:53.368Z,26.95
2024-03-26T10:22:52.909Z,26.97
2024-03-26T10:23:52.964Z,26.96
2024-03-26T10:24:53.021Z,26.96
2024-03-26T10:25:53.047Z,26.79
2024-03-26T10:26:53.111Z,26.89
2024-03-26T10:27:53.122Z,26.83
2024-03-26T10:28:53.153Z,26.86
2024-03-26T10:29:53.172Z,26.81
